Time;durP1;ratioP1;P1;durP2;ratioP2;P2;SDS_P1;SDS_P2;PMS_P1;PMS_P2;Temp;Humidity;BMP_temperature;BMP_pressure;BME280_temperature;BME280_humidity;BME280_pressure;Samples;Min_cycle;Max_cycle;Signal;HPM_P1;HPM_P2
2023/03/15 00:00:46;;;;;;;2.10;1.67;;;;;;;;;;4999740;28;20284;-78
2023/03/15 00:03:13;;;;;;;4.27;1.57;;;;;;;;;;5005725;28;20182;-78
2023/03/15 00:05:40;;;;;;;2.37;1.37;;;;;;;;;;5003625;28;20214;-78
2023/03/15 00:08:06;;;;;;;3.67;2.37;;;;;;;;;;5010333;28;20179;-79
2023/03/15 00:10:31;;;;;;;2.63;1.70;;;;;;;;;;5008945;28;20181;-79
2023/03/15 00:12:56;;;;;;;3.33;1.63;;;;;;;;;;5006841;28;20257;-79
2023/03/15 00:15:22;;;;;;;5.30;1.70;;;;;;;;;;5013252;28;20248;-79
2023/03/15 00:17:47;;;;;;;0.90;0.90;;;;;;;;;;5003708;28;20207;-78
2023/03/15 00:20:13;;;;;;;1.20;0.97;;;;;;;;;;5011007;28;20175;-79
2023/03/15 00:22:39;;;;;;;2.03;1.60;;;;;;;;;;5045075;28;20257;-79
2023/03/15 00:25:04;;;;;;;2.50;1.37;;;;;;;;;;5024487;28;20217;-79
2023/03/15 00:27:30;;;;;;;2.57;1.30;;;;;;;;;;5025829;28;20181;-79
2023/03/15 00:29:58;;;;;;;2.30;2.10;;;;;;;;;;5030101;28;20183;-79
2023/03/15 00:32:23;;;;;;;3.00;1.73;;;;;;;;;;5030831;28;20187;-79
2023/03/15 00:34:48;;;;;;;3.30;2.37;;;;;;;;;;5029722;28;20238;-79
2023/03/15 00:37:18;;;;;;;3.63;1.27;;;;;;;;;;5044532;28;20185;-79
2023/03/15 00:39:44;;;;;;;4.63;2.13;;;;;;;;;;5050608;28;20205;-79
2023/03/15 00:42:10;;;;;;;3.37;2.00;;;;;;;;;;5044262;28;20209;-79
2023/03/15 00:44:35;;;;;;;3.47;1.77;;;;;;;;;;5022790;28;20198;-79
2023/03/15 00:47:00;;;;;;;3.60;2.00;;;;;;;;;;5039853;28;20266;-79
2023/03/15 00:49:25;;;;;;;3.33;1.67;;;;;;;;;;5025205;28;20182;-79
2023/03/15 00:51:53;;;;;;;5.67;2.00;;;;;;;;;;5028148;28;20183;-79
2023/03/15 00:54:18;;;;;;;2.83;1.40;;;;;;;;;;5025806;28;20174;-79
2023/03/15 00:56:43;;;;;;;3.20;1.67;;;;;;;;;;5024987;28;20205;-78
2023/03/15 00:59:08;;;;;;;4.53;1.60;;;;;;;;;;5029096;28;20179;-79
2023/03/15 01:01:34;;;;;;;4.87;1.40;;;;;;;;;;5017400;28;20252;-79
2023/03/15 01:04:00;;;;;;;3.67;1.50;;;;;;;;;;5029497;28;20177;-78
2023/03/15 01:06:26;;;;;;;2.30;1.10;;;;;;;;;;5024382;28;20178;-79
2023/03/15 01:08:54;;;;;;;1.30;1.10;;;;;;;;;;5031978;28;20178;-78
2023/03/15 01:11:23;;;;;;;3.20;1.40;;;;;;;;;;5023223;28;20198;-78
2023/03/15 01:13:48;;;;;;;4.87;2.00;;;;;;;;;;5020540;28;20308;-79
2023/03/15 01:16:13;;;;;;;2.37;1.60;;;;;;;;;;5023378;28;20265;-79
2023/03/15 01:18:40;;;;;;;1.60;1.40;;;;;;;;;;5051424;28;20177;-78
2023/03/15 01:21:05;;;;;;;1.77;1.23;;;;;;;;;;5042292;28;20228;-79
2023/03/15 01:23:31;;;;;;;6.73;2.10;;;;;;;;;;5026219;28;20169;-78
2023/03/15 01:25:58;;;;;;;2.73;1.83;;;;;;;;;;5023063;28;20193;-78
2023/03/15 01:28:24;;;;;;;2.27;1.83;;;;;;;;;;5043120;28;20194;-78
2023/03/15 01:30:50;;;;;;;3.27;2.30;;;;;;;;;;5027079;28;20204;-78
2023/03/15 01:33:15;;;;;;;4.47;2.00;;;;;;;;;;5023071;28;20309;-78
2023/03/15 01:35:40;;;;;;;5.77;2.33;;;;;;;;;;5053329;28;20256;-79
2023/03/15 01:38:06;;;;;;;2.50;1.77;;;;;;;;;;5027608;28;20182;-79
2023/03/15 01:40:31;;;;;;;2.70;2.37;;;;;;;;;;5021014;28;20221;-79
2023/03/15 01:43:02;;;;;;;5.57;1.67;;;;;;;;;;5028015;28;20261;-78
2023/03/15 01:45:48;;;;;;;3.20;2.27;;;;;;;;;;5033490;28;20217;-79
2023/03/15 01:48:14;;;;;;;6.37;2.23;;;;;;;;;;5028921;28;20178;-78
2023/03/15 01:50:39;;;;;;;3.07;2.23;;;;;;;;;;5023693;28;20182;-79
2023/03/15 01:53:04;;;;;;;4.30;2.47;;;;;;;;;;5044037;28;20179;-79
2023/03/15 01:55:31;;;;;;;5.70;3.10;;;;;;;;;;5039319;28;20181;-79
2023/03/15 01:57:57;;;;;;;4.53;2.10;;;;;;;;;;5027526;28;20181;-79
2023/03/15 02:00:23;;;;;;;4.40;2.47;;;;;;;;;;5020934;28;20174;-79
2023/03/15 02:02:53;;;;;;;10.20;3.30;;;;;;;;;;5024603;28;20202;-79
2023/03/15 02:05:27;;;;;;;5.73;2.40;;;;;;;;;;5025825;28;20208;-79
2023/03/15 02:07:53;;;;;;;2.23;1.90;;;;;;;;;;5024892;28;20197;-79
2023/03/15 02:10:41;;;;;;;4.23;2.23;;;;;;;;;;5031442;28;20181;-79
2023/03/15 02:13:06;;;;;;;5.80;2.50;;;;;;;;;;5025209;28;20300;-79
2023/03/15 02:15:32;;;;;;;6.83;2.90;;;;;;;;;;5023846;28;20269;-79
2023/03/15 02:17:57;;;;;;;6.80;2.63;;;;;;;;;;5029766;28;20203;-79
2023/03/15 02:20:26;;;;;;;5.73;3.40;;;;;;;;;;5016754;28;20215;-79
2023/03/15 02:23:11;;;;;;;6.20;3.47;;;;;;;;;;4997276;28;20187;-79
2023/03/15 02:25:55;;;;;;;4.03;2.80;;;;;;;;;;5003829;28;20233;-79
2023/03/15 02:28:21;;;;;;;7.90;3.37;;;;;;;;;;5001914;28;20179;-79
2023/03/15 02:30:47;;;;;;;4.87;3.53;;;;;;;;;;5000609;28;20186;-79
2023/03/15 02:33:15;;;;;;;6.30;3.47;;;;;;;;;;5007482;28;20187;-79
2023/03/15 02:35:40;;;;;;;3.53;3.23;;;;;;;;;;5002069;28;20209;-78
2023/03/15 02:38:05;;;;;;;5.97;3.83;;;;;;;;;;5005552;28;20210;-78
2023/03/15 02:40:31;;;;;;;3.80;3.40;;;;;;;;;;5005283;28;20186;-78
2023/03/15 02:42:58;;;;;;;4.73;3.30;;;;;;;;;;5005274;28;20213;-78
2023/03/15 02:45:24;;;;;;;5.77;3.77;;;;;;;;;;4999468;28;20257;-78
2023/03/15 02:47:49;;;;;;;8.57;3.63;;;;;;;;;;5005955;28;20249;-78
2023/03/15 02:50:15;;;;;;;4.03;3.03;;;;;;;;;;5000461;28;20179;-78
2023/03/15 02:52:40;;;;;;;4.97;3.70;;;;;;;;;;5003797;28;20179;-78
2023/03/15 02:55:05;;;;;;;3.97;3.10;;;;;;;;;;5005921;28;20181;-78
2023/03/15 02:57:31;;;;;;;7.23;4.40;;;;;;;;;;4996169;28;20175;-78
2023/03/15 02:59:57;;;;;;;5.10;3.20;;;;;;;;;;5008818;28;20186;-78
2023/03/15 03:02:22;;;;;;;5.10;3.27;;;;;;;;;;5002792;28;20190;-78
2023/03/15 03:04:48;;;;;;;7.93;3.87;;;;;;;;;;5019090;28;20209;-78
2023/03/15 03:07:13;;;;;;;5.27;3.17;;;;;;;;;;5003499;28;20245;-78
2023/03/15 03:09:38;;;;;;;7.03;3.97;;;;;;;;;;5000036;28;20178;-78
2023/03/15 03:12:04;;;;;;;6.43;3.93;;;;;;;;;;5000440;28;20198;-78
2023/03/15 03:14:30;;;;;;;10.00;4.13;;;;;;;;;;4999225;28;20186;-78
2023/03/15 03:16:55;;;;;;;7.93;4.40;;;;;;;;;;5006753;28;20179;-78
2023/03/15 03:19:24;;;;;;;5.90;3.90;;;;;;;;;;5006845;28;20229;-78
2023/03/15 03:21:52;;;;;;;5.50;4.00;;;;;;;;;;5001409;28;20257;-78
2023/03/15 03:24:17;;;;;;;7.73;4.53;;;;;;;;;;5017231;28;20205;-78
2023/03/15 03:26:44;;;;;;;3.87;3.50;;;;;;;;;;5002533;28;20175;-78
2023/03/15 03:29:10;;;;;;;6.30;4.23;;;;;;;;;;4999334;28;20207;-78
2023/03/15 03:31:35;;;;;;;8.20;4.20;;;;;;;;;;5001769;28;20174;-78
2023/03/15 03:34:00;;;;;;;5.73;3.80;;;;;;;;;;5004364;28;20187;-78
2023/03/15 03:36:25;;;;;;;5.53;3.77;;;;;;;;;;5000109;28;20287;-78
2023/03/15 03:38:51;;;;;;;7.50;3.73;;;;;;;;;;5002288;28;20253;-78
2023/03/15 03:41:16;;;;;;;5.33;3.20;;;;;;;;;;5029913;28;20179;-77
2023/03/15 03:43:41;;;;;;;5.13;3.80;;;;;;;;;;5013456;28;20186;-78
2023/03/15 03:46:06;;;;;;;7.97;2.70;;;;;;;;;;5006797;28;20341;-78
2023/03/15 03:48:32;;;;;;;7.50;3.20;;;;;;;;;;5012248;28;20257;-78
2023/03/15 03:50:57;;;;;;;4.07;3.07;;;;;;;;;;5006399;28;20179;-77
2023/03/15 03:53:22;;;;;;;5.20;2.80;;;;;;;;;;5005094;28;20195;-77
2023/03/15 03:55:48;;;;;;;6.90;3.13;;;;;;;;;;5013401;28;20205;-77
2023/03/15 03:58:13;;;;;;;4.33;2.90;;;;;;;;;;5003794;28;20194;-78
2023/03/15 04:00:40;;;;;;;7.97;2.50;;;;;;;;;;5023520;28;20187;-78
2023/03/15 04:03:05;;;;;;;6.63;3.00;;;;;;;;;;5013886;28;20183;-77
2023/03/15 04:05:31;;;;;;;6.03;3.50;;;;;;;;;;5009800;28;20277;-78
2023/03/15 04:07:56;;;;;;;7.83;3.13;;;;;;;;;;5030702;28;20257;-77
2023/03/15 04:10:25;;;;;;;8.47;3.10;;;;;;;;;;5003915;28;20325;-78
2023/03/15 04:12:51;;;;;;;5.00;2.90;;;;;;;;;;5022592;28;20197;-78
2023/03/15 04:15:16;;;;;;;5.73;3.10;;;;;;;;;;5009107;28;20183;-78
2023/03/15 04:17:42;;;;;;;4.13;3.50;;;;;;;;;;5003442;28;20269;-78
2023/03/15 04:20:10;;;;;;;9.90;3.30;;;;;;;;;;5006706;28;20175;-78
2023/03/15 04:22:35;;;;;;;4.73;3.30;;;;;;;;;;5021835;28;20181;-78
2023/03/15 04:25:01;;;;;;;6.13;3.30;;;;;;;;;;5028391;28;20209;-78
2023/03/15 04:27:27;;;;;;;9.10;4.33;;;;;;;;;;5024009;28;20217;-78
2023/03/15 04:29:52;;;;;;;4.30;3.50;;;;;;;;;;5031446;28;20185;-78
2023/03/15 04:32:17;;;;;;;5.27;3.70;;;;;;;;;;5038280;28;20208;-78
2023/03/15 04:34:42;;;;;;;9.00;4.70;;;;;;;;;;5043660;28;20178;-78
2023/03/15 04:37:08;;;;;;;7.27;4.10;;;;;;;;;;5028492;28;20210;-78
2023/03/15 04:39:33;;;;;;;4.90;3.47;;;;;;;;;;5034970;28;20190;-78
2023/03/15 04:41:58;;;;;;;6.20;3.90;;;;;;;;;;5022362;28;20178;-78
2023/03/15 04:44:25;;;;;;;3.80;3.40;;;;;;;;;;5023200;28;20201;-79
2023/03/15 04:46:50;;;;;;;5.90;3.10;;;;;;;;;;5017808;28;20182;-78
2023/03/15 04:49:16;;;;;;;7.80;3.30;;;;;;;;;;5022078;28;20220;-78
2023/03/15 04:51:41;;;;;;;7.27;3.63;;;;;;;;;;5025028;28;20182;-79
2023/03/15 04:54:06;;;;;;;8.67;3.00;;;;;;;;;;5029344;28;20181;-79
2023/03/15 04:56:31;;;;;;;7.03;3.77;;;;;;;;;;5038059;28;20207;-79
2023/03/15 04:58:56;;;;;;;8.70;3.63;;;;;;;;;;5024914;28;20174;-79
2023/03/15 05:01:24;;;;;;;8.93;3.57;;;;;;;;;;5025407;28;20240;-79
2023/03/15 05:03:49;;;;;;;6.17;3.63;;;;;;;;;;5029554;28;20174;-80
2023/03/15 05:06:15;;;;;;;5.30;3.30;;;;;;;;;;5022221;28;20198;-79
2023/03/15 05:08:40;;;;;;;3.80;2.60;;;;;;;;;;5047084;28;20182;-79
2023/03/15 05:11:05;;;;;;;5.90;3.07;;;;;;;;;;5022256;28;20175;-79
2023/03/15 05:13:31;;;;;;;6.63;3.73;;;;;;;;;;5024530;28;20274;-80
2023/03/15 05:15:56;;;;;;;4.87;3.63;;;;;;;;;;5025909;28;20187;-80
2023/03/15 05:18:21;;;;;;;6.77;3.40;;;;;;;;;;5029266;28;20182;-80
2023/03/15 05:20:46;;;;;;;7.57;3.40;;;;;;;;;;5022369;28;20222;-80
2023/03/15 05:23:12;;;;;;;5.40;2.80;;;;;;;;;;5009594;28;20194;-80
2023/03/15 05:25:37;;;;;;;10.57;5.10;;;;;;;;;;5005291;28;20329;-80
2023/03/15 05:28:03;;;;;;;6.13;3.20;;;;;;;;;;5002628;28;20278;-80
2023/03/15 05:30:29;;;;;;;5.53;2.83;;;;;;;;;;5006992;28;20182;-80
2023/03/15 05:32:55;;;;;;;8.83;4.40;;;;;;;;;;5010316;28;20182;-81
2023/03/15 05:35:22;;;;;;;4.37;2.67;;;;;;;;;;5005081;28;20189;-81
2023/03/15 05:37:48;;;;;;;5.20;2.50;;;;;;;;;;5026364;28;20179;-81
2023/03/15 05:40:14;;;;;;;4.87;2.53;;;;;;;;;;5007171;28;20171;-81
2023/03/15 05:42:40;;;;;;;5.10;2.83;;;;;;;;;;5002952;28;20183;-80
2023/03/15 05:45:06;;;;;;;5.90;2.63;;;;;;;;;;5006852;28;20233;-81
2023/03/15 05:47:31;;;;;;;5.97;2.70;;;;;;;;;;5009055;28;20169;-80
2023/03/15 05:49:56;;;;;;;6.00;2.67;;;;;;;;;;5006109;28;20183;-80
2023/03/15 05:52:22;;;;;;;3.07;2.67;;;;;;;;;;5002873;28;20186;-80
2023/03/15 05:54:47;;;;;;;8.80;3.03;;;;;;;;;;5028561;28;20357;-80
2023/03/15 05:57:12;;;;;;;2.20;1.90;;;;;;;;;;4997824;28;20179;-79
2023/03/15 05:59:38;;;;;;;3.23;2.23;;;;;;;;;;5007933;28;20186;-79
2023/03/15 06:02:03;;;;;;;44.30;20.03;;;;;;;;;;5003214;28;20186;-79
2023/03/15 06:04:28;;;;;;;12.10;5.83;;;;;;;;;;5000061;28;20273;-79
2023/03/15 06:06:53;;;;;;;5.30;4.33;;;;;;;;;;5019737;28;20171;-78
2023/03/15 06:09:19;;;;;;;8.77;3.93;;;;;;;;;;5008804;28;20178;-78
2023/03/15 06:11:44;;;;;;;11.27;2.87;;;;;;;;;;5008241;28;20197;-77
2023/03/15 06:14:09;;;;;;;5.73;3.50;;;;;;;;;;5002270;28;20178;-77
2023/03/15 06:16:34;;;;;;;7.83;3.57;;;;;;;;;;5010150;28;20182;-77
2023/03/15 06:18:59;;;;;;;7.03;4.17;;;;;;;;;;5009391;28;20190;-77
2023/03/15 06:21:25;;;;;;;6.83;3.50;;;;;;;;;;5004737;28;20262;-77
2023/03/15 06:23:50;;;;;;;4.67;2.43;;;;;;;;;;5001387;28;20267;-77
2023/03/15 06:26:17;;;;;;;4.97;2.70;;;;;;;;;;5004806;28;20203;-77
2023/03/15 06:28:42;;;;;;;7.20;2.57;;;;;;;;;;5019714;28;20206;-77
2023/03/15 06:31:08;;;;;;;5.37;2.70;;;;;;;;;;4999633;28;20252;-77
2023/03/15 06:33:33;;;;;;;6.20;3.27;;;;;;;;;;4996167;28;20187;-77
2023/03/15 06:35:59;;;;;;;7.83;5.27;;;;;;;;;;5009814;28;20189;-77
2023/03/15 06:38:24;;;;;;;6.77;2.23;;;;;;;;;;5018483;28;20175;-76
2023/03/15 06:40:49;;;;;;;7.53;3.03;;;;;;;;;;5003113;28;20171;-77
2023/03/15 06:43:18;;;;;;;4.70;2.77;;;;;;;;;;5005124;28;20182;-77
2023/03/15 06:45:44;;;;;;;4.60;2.03;;;;;;;;;;5019113;28;20205;-77
2023/03/15 06:48:09;;;;;;;17.70;7.50;;;;;;;;;;5002239;28;20180;-77
2023/03/15 06:50:34;;;;;;;11.40;5.63;;;;;;;;;;4997093;28;20193;-76
2023/03/15 06:53:00;;;;;;;14.53;5.87;;;;;;;;;;5027267;28;20183;-75
2023/03/15 06:55:25;;;;;;;5.53;2.87;;;;;;;;;;5002895;28;20255;-76
2023/03/15 06:57:50;;;;;;;13.03;4.77;;;;;;;;;;5011174;28;20179;-77
2023/03/15 07:00:16;;;;;;;3.87;3.17;;;;;;;;;;5009436;28;20180;-76
2023/03/15 07:02:41;;;;;;;9.97;5.13;;;;;;;;;;5007176;28;20191;-76
2023/03/15 07:05:06;;;;;;;9.63;3.10;;;;;;;;;;5006300;28;20203;-76
2023/03/15 07:07:32;;;;;;;4.83;2.30;;;;;;;;;;5005691;28;20177;-78
2023/03/15 07:09:57;;;;;;;6.13;2.37;;;;;;;;;;5008757;28;20181;-76
2023/03/15 07:12:22;;;;;;;6.67;2.30;;;;;;;;;;5016961;28;20194;-76
2023/03/15 07:14:48;;;;;;;6.83;2.10;;;;;;;;;;5024301;28;20189;-76
2023/03/15 07:17:13;;;;;;;4.97;2.30;;;;;;;;;;5008200;28;20194;-76
2023/03/15 07:19:39;;;;;;;2.43;1.73;;;;;;;;;;5015929;28;20264;-76
2023/03/15 07:22:04;;;;;;;4.00;1.77;;;;;;;;;;5049602;28;20244;-76
2023/03/15 07:24:29;;;;;;;3.73;1.70;;;;;;;;;;5029475;28;20194;-76
2023/03/15 07:26:55;;;;;;;4.53;1.33;;;;;;;;;;5034548;28;20243;-75
2023/03/15 07:29:21;;;;;;;5.27;2.20;;;;;;;;;;5023045;28;20211;-76
2023/03/15 07:31:46;;;;;;;3.67;2.07;;;;;;;;;;5046694;28;20177;-76
2023/03/15 07:34:11;;;;;;;2.93;1.43;;;;;;;;;;5027058;28;20176;-75
2023/03/15 07:36:36;;;;;;;2.13;1.33;;;;;;;;;;5027979;28;20177;-75
2023/03/15 07:39:03;;;;;;;3.57;1.73;;;;;;;;;;5036577;28;20189;-76
2023/03/15 07:41:28;;;;;;;3.53;1.50;;;;;;;;;;5031961;28;20244;-76
2023/03/15 07:43:54;;;;;;;3.90;1.23;;;;;;;;;;5055329;28;20178;-76
2023/03/15 07:46:19;;;;;;;7.67;1.53;;;;;;;;;;5026195;28;20214;-76
2023/03/15 07:48:45;;;;;;;1.90;1.20;;;;;;;;;;5032469;28;20234;-76
2023/03/15 07:51:10;;;;;;;3.17;1.17;;;;;;;;;;5030723;28;20175;-76
2023/03/15 07:53:35;;;;;;;2.70;1.63;;;;;;;;;;5026915;28;20178;-77
2023/03/15 07:56:00;;;;;;;3.80;1.83;;;;;;;;;;5032103;28;20174;-77
2023/03/15 07:58:26;;;;;;;4.30;1.50;;;;;;;;;;5035851;28;20186;-77
2023/03/15 08:00:53;;;;;;;4.90;1.70;;;;;;;;;;5037441;28;20188;-77
2023/03/15 08:03:18;;;;;;;4.93;1.60;;;;;;;;;;5021652;28;20174;-77
2023/03/15 08:05:43;;;;;;;5.67;1.60;;;;;;;;;;5025677;28;20216;-77
2023/03/15 08:08:09;;;;;;;2.97;1.37;;;;;;;;;;5023716;28;20194;-77
2023/03/15 08:10:37;;;;;;;2.90;1.80;;;;;;;;;;5029758;28;20190;-77
2023/03/15 08:13:02;;;;;;;7.07;3.30;;;;;;;;;;5043912;28;20202;-77
2023/03/15 08:15:28;;;;;;;3.50;2.17;;;;;;;;;;5033773;28;20197;-77
2023/03/15 08:17:53;;;;;;;5.77;2.80;;;;;;;;;;5030610;28;20183;-77
2023/03/15 08:20:19;;;;;;;5.00;2.60;;;;;;;;;;5035654;28;20255;-77
2023/03/15 08:22:48;;;;;;;6.17;2.33;;;;;;;;;;5028929;28;20216;-76
2023/03/15 08:25:14;;;;;;;4.37;2.80;;;;;;;;;;5048236;28;20198;-76
2023/03/15 08:27:40;;;;;;;2.83;2.30;;;;;;;;;;5021250;28;20183;-76
2023/03/15 08:30:06;;;;;;;4.87;1.40;;;;;;;;;;5029220;28;20175;-76
2023/03/15 08:32:32;;;;;;;5.10;1.87;;;;;;;;;;5031020;28;20227;-76
2023/03/15 08:34:57;;;;;;;3.40;1.40;;;;;;;;;;5026199;28;20179;-75
2023/03/15 08:37:22;;;;;;;3.63;1.43;;;;;;;;;;5029221;28;20258;-76
2023/03/15 08:39:48;;;;;;;5.60;1.63;;;;;;;;;;5030881;28;20174;-76
2023/03/15 08:42:13;;;;;;;3.23;1.30;;;;;;;;;;5038096;28;20259;-76
2023/03/15 08:44:38;;;;;;;2.70;1.37;;;;;;;;;;5028661;28;20190;-76
2023/03/15 08:47:04;;;;;;;2.60;1.60;;;;;;;;;;5027798;28;20186;-76
2023/03/15 08:49:29;;;;;;;5.50;1.73;;;;;;;;;;5044602;28;20177;-76
2023/03/15 08:51:54;;;;;;;1.93;1.20;;;;;;;;;;5023725;28;20185;-76
2023/03/15 08:54:20;;;;;;;8.20;1.87;;;;;;;;;;5044161;28;20170;-76
2023/03/15 08:56:45;;;;;;;2.70;1.30;;;;;;;;;;5021228;28;20171;-76
2023/03/15 08:59:11;;;;;;;7.37;1.23;;;;;;;;;;5033035;28;20190;-76
2023/03/15 09:01:38;;;;;;;4.60;1.67;;;;;;;;;;5031224;28;20257;-76
2023/03/15 09:04:04;;;;;;;4.67;1.60;;;;;;;;;;5026257;28;20170;-76
2023/03/15 09:06:30;;;;;;;5.20;1.63;;;;;;;;;;5061028;28;20254;-76
2023/03/15 09:08:55;;;;;;;7.27;1.63;;;;;;;;;;5045536;28;20189;-76
2023/03/15 09:11:20;;;;;;;6.87;1.50;;;;;;;;;;5048045;28;20193;-76
2023/03/15 09:13:46;;;;;;;2.73;1.37;;;;;;;;;;5017040;28;20178;-76
2023/03/15 09:16:11;;;;;;;2.23;1.20;;;;;;;;;;5020742;28;20202;-76
2023/03/15 09:18:39;;;;;;;4.40;1.60;;;;;;;;;;5027837;28;20174;-76
2023/03/15 09:21:04;;;;;;;2.97;2.10;;;;;;;;;;5024159;28;20265;-76
2023/03/15 09:23:29;;;;;;;2.73;1.30;;;;;;;;;;5019764;28;20182;-76
2023/03/15 09:25:55;;;;;;;3.70;1.37;;;;;;;;;;5014386;28;20285;-76
2023/03/15 09:28:20;;;;;;;2.57;1.20;;;;;;;;;;5020702;28;20206;-76
2023/03/15 09:30:45;;;;;;;3.27;1.40;;;;;;;;;;5006170;28;20171;-76
2023/03/15 09:33:13;;;;;;;2.77;1.00;;;;;;;;;;5005954;28;20175;-76
2023/03/15 09:35:38;;;;;;;2.37;2.07;;;;;;;;;;5005364;28;20262;-76
2023/03/15 09:38:04;;;;;;;2.10;1.37;;;;;;;;;;5007063;28;20187;-76
2023/03/15 09:40:30;;;;;;;2.73;1.33;;;;;;;;;;5022476;28;20179;-76
2023/03/15 09:42:56;;;;;;;1.93;1.20;;;;;;;;;;5009457;28;20175;-76
2023/03/15 09:45:24;;;;;;;1.33;1.07;;;;;;;;;;5007262;28;20208;-76
2023/03/15 09:48:10;;;;;;;5.40;1.00;;;;;;;;;;5009154;28;20175;-76
2023/03/15 09:50:47;;;;;;;1.40;1.17;;;;;;;;;;5003990;28;20195;-76
2023/03/15 09:53:25;;;;;;;2.80;1.40;;;;;;;;;;5012284;28;20206;-76
2023/03/15 09:55:50;;;;;;;2.33;1.50;;;;;;;;;;4999982;28;20187;-76
2023/03/15 09:58:24;;;;;;;2.93;1.10;;;;;;;;;;5026819;28;20167;-76
2023/03/15 10:00:55;;;;;;;3.40;1.10;;;;;;;;;;5004725;28;20190;-76
2023/03/15 10:03:25;;;;;;;2.43;1.30;;;;;;;;;;5009422;28;20183;-76
2023/03/15 10:05:54;;;;;;;2.53;1.10;;;;;;;;;;5004751;28;20230;-77
2023/03/15 10:08:20;;;;;;;3.83;1.13;;;;;;;;;;5001530;28;20202;-77
2023/03/15 10:10:50;;;;;;;1.73;0.93;;;;;;;;;;4999836;28;20179;-77
2023/03/15 10:13:34;;;;;;;2.80;1.33;;;;;;;;;;5028907;28;20198;-77
2023/03/15 10:15:59;;;;;;;1.70;1.07;;;;;;;;;;5002168;28;20174;-77
2023/03/15 10:18:30;;;;;;;1.67;0.90;;;;;;;;;;5003092;28;20209;-77
2023/03/15 10:21:10;;;;;;;1.67;0.77;;;;;;;;;;5004136;28;20233;-77
2023/03/15 10:23:44;;;;;;;2.23;1.07;;;;;;;;;;5014026;28;20186;-77
2023/03/15 10:26:11;;;;;;;1.73;0.83;;;;;;;;;;5020356;28;20207;-77
2023/03/15 10:28:37;;;;;;;1.93;0.80;;;;;;;;;;5003868;28;20186;-78
2023/03/15 10:31:10;;;;;;;1.10;1.00;;;;;;;;;;5000049;28;20180;-78
2023/03/15 10:33:53;;;;;;;2.17;1.40;;;;;;;;;;5043917;27;1396738;-79
2023/03/15 10:36:20;;;;;;;2.27;1.30;;;;;;;;;;5080643;28;20214;-79
2023/03/15 10:38:45;;;;;;;1.67;1.13;;;;;;;;;;5069299;28;20272;-79
2023/03/15 10:41:13;;;;;;;2.37;1.13;;;;;;;;;;5088020;28;20212;-79
2023/03/15 10:43:40;;;;;;;1.10;1.00;;;;;;;;;;5084712;28;20188;-79
2023/03/15 10:46:05;;;;;;;1.30;1.10;;;;;;;;;;5084173;28;20184;-80
2023/03/15 10:48:34;;;;;;;2.43;1.00;;;;;;;;;;5084239;28;20174;-79
2023/03/15 10:51:02;;;;;;;1.20;1.00;;;;;;;;;;5082178;28;20179;-80
2023/03/15 10:53:27;;;;;;;2.77;1.43;;;;;;;;;;5080082;28;20197;-79
2023/03/15 10:56:04;;;;;;;2.50;1.47;;;;;;;;;;5088384;28;20177;-80
2023/03/15 10:58:38;;;;;;;1.97;1.30;;;;;;;;;;5081582;28;20180;-80
2023/03/15 11:01:08;;;;;;;2.20;1.57;;;;;;;;;;5085590;28;20185;-80
2023/03/15 11:03:35;;;;;;;2.37;1.13;;;;;;;;;;5083428;28;20245;-80
2023/03/15 11:06:00;;;;;;;3.67;1.37;;;;;;;;;;5086228;28;20195;-80
2023/03/15 11:08:36;;;;;;;2.83;1.27;;;;;;;;;;5083385;28;20177;-79
2023/03/15 11:11:01;;;;;;;2.23;1.37;;;;;;;;;;5081539;28;20187;-79
2023/03/15 11:13:27;;;;;;;2.20;1.20;;;;;;;;;;5063490;28;20239;-79
2023/03/15 11:15:53;;;;;;;4.83;1.53;;;;;;;;;;5069728;28;20275;-80
2023/03/15 11:18:23;;;;;;;1.23;1.13;;;;;;;;;;5062913;28;20165;-79
2023/03/15 11:20:49;;;;;;;3.63;1.53;;;;;;;;;;5058235;28;20186;-80
2023/03/15 11:23:19;;;;;;;1.27;0.90;;;;;;;;;;5069085;28;20181;-79
2023/03/15 11:25:45;;;;;;;2.83;1.50;;;;;;;;;;5065771;28;20190;-79
2023/03/15 11:28:14;;;;;;;2.87;1.63;;;;;;;;;;5061463;28;20190;-79
2023/03/15 11:30:40;;;;;;;1.97;1.43;;;;;;;;;;5061006;28;20184;-80
2023/03/15 11:33:06;;;;;;;1.27;1.00;;;;;;;;;;5065518;28;20311;-79
2023/03/15 11:35:33;;;;;;;3.83;1.77;;;;;;;;;;5055775;28;20180;-79
2023/03/15 11:38:04;;;;;;;3.87;2.00;;;;;;;;;;5067841;28;20180;-80
2023/03/15 11:40:32;;;;;;;1.80;1.50;;;;;;;;;;5068278;28;20217;-79
2023/03/15 11:43:07;;;;;;;3.30;1.90;;;;;;;;;;5064950;28;20173;-79
2023/03/15 11:45:43;;;;;;;2.80;1.50;;;;;;;;;;5046006;28;20204;-79
2023/03/15 11:48:17;;;;;;;1.93;1.20;;;;;;;;;;5059238;28;20246;-79
2023/03/15 11:50:42;;;;;;;3.33;1.60;;;;;;;;;;5053927;28;20182;-79
2023/03/15 11:53:11;;;;;;;4.60;2.50;;;;;;;;;;5052127;28;20254;-79
2023/03/15 11:55:36;;;;;;;2.20;1.60;;;;;;;;;;5047778;28;20231;-79
2023/03/15 11:58:26;;;;;;;2.07;1.80;;;;;;;;;;5048417;28;20181;-79
2023/03/15 12:00:53;;;;;;;3.13;1.60;;;;;;;;;;5048716;28;20190;-79
2023/03/15 12:03:24;;;;;;;1.63;1.50;;;;;;;;;;5055677;28;20251;-79
2023/03/15 12:05:51;;;;;;;3.27;1.60;;;;;;;;;;5047508;28;20183;-79
2023/03/15 12:08:17;;;;;;;2.30;1.47;;;;;;;;;;5054615;28;20197;-79
2023/03/15 12:10:45;;;;;;;2.63;1.80;;;;;;;;;;5042608;28;20182;-79
2023/03/15 12:13:30;;;;;;;2.83;1.53;;;;;;;;;;5050207;28;20213;-78
2023/03/15 12:15:56;;;;;;;4.50;1.77;;;;;;;;;;5049255;28;20323;-78
2023/03/15 12:18:26;;;;;;;1.53;1.43;;;;;;;;;;5048548;28;20198;-79
2023/03/15 12:21:12;;;;;;;2.27;1.37;;;;;;;;;;5044924;28;20183;-78
2023/03/15 12:23:39;;;;;;;4.37;1.93;;;;;;;;;;5036918;28;20198;-79
2023/03/15 12:26:07;;;;;;;4.13;1.87;;;;;;;;;;5042418;28;20178;-79
2023/03/15 12:28:37;;;;;;;2.63;1.70;;;;;;;;;;5041396;28;20265;-79
2023/03/15 12:31:04;;;;;;;2.63;1.50;;;;;;;;;;5047418;28;20178;-79
2023/03/15 12:33:30;;;;;;;4.10;1.70;;;;;;;;;;5036250;28;20280;-79
2023/03/15 12:36:06;;;;;;;2.40;1.80;;;;;;;;;;5039008;28;20178;-79
2023/03/15 12:38:36;;;;;;;15.67;7.00;;;;;;;;;;5047057;28;20189;-79
2023/03/15 12:41:05;;;;;;;2.40;2.20;;;;;;;;;;5048903;28;20177;-78
2023/03/15 12:43:44;;;;;;;1.70;1.60;;;;;;;;;;5044821;28;20182;-78
2023/03/15 12:46:28;;;;;;;2.33;1.83;;;;;;;;;;5046541;28;20184;-78
2023/03/15 12:49:12;;;;;;;4.13;2.00;;;;;;;;;;5050107;28;20189;-78
2023/03/15 12:52:04;;;;;;;2.37;1.93;;;;;;;;;;5048441;28;20189;-78
2023/03/15 12:54:52;;;;;;;2.80;2.13;;;;;;;;;;5031474;28;20214;-78
2023/03/15 12:57:27;;;;;;;5.07;1.90;;;;;;;;;;5027709;28;20259;-78
2023/03/15 13:00:10;;;;;;;2.97;1.60;;;;;;;;;;5048220;28;20189;-78
2023/03/15 13:02:37;;;;;;;2.20;1.60;;;;;;;;;;5051381;28;20178;-82
2023/03/15 13:05:12;;;;;;;0.90;0.80;;;;;;;;;;5048624;28;20255;-77
2023/03/15 13:07:49;;;;;;;5.20;2.00;;;;;;;;;;5047001;28;20173;-77
2023/03/15 13:10:27;;;;;;;3.03;1.83;;;;;;;;;;5063801;28;20185;-77
2023/03/15 13:13:11;;;;;;;1.83;1.70;;;;;;;;;;5052164;28;20201;-77
2023/03/15 13:15:41;;;;;;;1.93;1.70;;;;;;;;;;5043031;28;20178;-77
2023/03/15 13:18:16;;;;;;;2.43;1.80;;;;;;;;;;5049389;28;20171;-76
2023/03/15 13:20:49;;;;;;;3.20;2.30;;;;;;;;;;5044106;28;20211;-77
2023/03/15 13:23:16;;;;;;;2.70;2.10;;;;;;;;;;5053373;28;20333;-77
2023/03/15 13:26:01;;;;;;;3.50;1.90;;;;;;;;;;5045996;28;20182;-77
2023/03/15 13:28:36;;;;;;;4.93;2.60;;;;;;;;;;5046081;28;20270;-77
2023/03/15 13:31:08;;;;;;;5.10;2.30;;;;;;;;;;5052475;28;20243;-77
2023/03/15 13:33:34;;;;;;;3.77;2.30;;;;;;;;;;5053178;28;20225;-77
2023/03/15 13:36:04;;;;;;;3.40;2.30;;;;;;;;;;5068969;28;20254;-78
2023/03/15 13:38:33;;;;;;;4.47;2.53;;;;;;;;;;5055273;28;20276;-78
2023/03/15 13:41:00;;;;;;;4.77;2.50;;;;;;;;;;5049581;28;20184;-78
2023/03/15 13:43:33;;;;;;;7.13;2.87;;;;;;;;;;5052299;28;20192;-77
2023/03/15 13:45:59;;;;;;;2.67;2.10;;;;;;;;;;5052134;28;20178;-77
2023/03/15 13:48:31;;;;;;;3.57;2.63;;;;;;;;;;5052472;28;20205;-77
2023/03/15 13:51:01;;;;;;;1.80;1.60;;;;;;;;;;5048954;28;20181;-78
2023/03/15 13:53:33;;;;;;;1.93;1.67;;;;;;;;;;5064443;28;20201;-78
2023/03/15 13:55:58;;;;;;;2.50;2.27;;;;;;;;;;5071173;28;20182;-77
2023/03/15 13:58:24;;;;;;;1.90;1.80;;;;;;;;;;5053822;28;20172;-78
2023/03/15 14:00:55;;;;;;;2.10;1.70;;;;;;;;;;5048128;28;20228;-78
2023/03/15 14:03:23;;;;;;;2.43;2.23;;;;;;;;;;5049886;28;20197;-77
2023/03/15 14:05:49;;;;;;;3.37;1.77;;;;;;;;;;5058848;28;20181;-78
2023/03/15 14:08:21;;;;;;;2.80;2.00;;;;;;;;;;5044460;28;20220;-77
2023/03/15 14:11:18;;;;;;;4.87;2.47;;;;;;;;;;5041077;28;20241;-78
2023/03/15 14:13:56;;;;;;;3.93;2.07;;;;;;;;;;5018421;28;20216;-78
2023/03/15 14:16:48;;;;;;;2.20;2.00;;;;;;;;;;5041076;28;20178;-78
2023/03/15 14:19:20;;;;;;;2.03;1.83;;;;;;;;;;5055539;28;20193;-78
2023/03/15 14:21:47;;;;;;;3.83;3.30;;;;;;;;;;5054624;28;20184;-78
2023/03/15 14:24:15;;;;;;;3.50;3.13;;;;;;;;;;5071485;28;20273;-78
2023/03/15 14:26:40;;;;;;;3.70;2.67;;;;;;;;;;5054832;28;20178;-78
2023/03/15 14:29:12;;;;;;;3.20;2.10;;;;;;;;;;5072202;28;20176;-77
2023/03/15 14:31:39;;;;;;;3.90;2.27;;;;;;;;;;5045729;28;20188;-78
2023/03/15 14:34:14;;;;;;;2.63;2.20;;;;;;;;;;5044444;28;20174;-78
2023/03/15 14:36:42;;;;;;;2.70;2.37;;;;;;;;;;5043689;28;20197;-78
2023/03/15 14:39:22;;;;;;;5.10;3.10;;;;;;;;;;5069702;28;20181;-78
2023/03/15 14:41:50;;;;;;;15.63;14.37;;;;;;;;;;5042665;28;20173;-78
2023/03/15 14:44:16;;;;;;;4.07;3.67;;;;;;;;;;5048054;28;20173;-77
2023/03/15 14:46:41;;;;;;;8.27;5.73;;;;;;;;;;5051479;28;20180;-77